createdAt,value
2019-01-27T00:02:12.915Z,100.00
2019-01-27T00:04:41.349Z,100.00
2019-01-27T00:07:10.206Z,100.00
2019-01-27T00:09:38.622Z,100.00
2019-01-27T00:12:07.109Z,100.00
2019-01-27T00:14:35.544Z,100.00
2019-01-27T00:17:04.485Z,100.00
2019-01-27T00:19:32.937Z,100.00
2019-01-27T00:22:01.505Z,100.00
2019-01-27T00:24:29.998Z,100.00
2019-01-27T00:26:58.466Z,100.00
2019-01-27T00:29:26.947Z,100.00
2019-01-27T00:31:58.297Z,100.00
2019-01-27T00:34:26.773Z,100.00
2019-01-27T00:36:55.252Z,100.00
2019-01-27T00:39:23.655Z,100.00
2019-01-27T00:41:52.062Z,100.00
2019-01-27T00:44:20.532Z,100.00
2019-01-27T00:46:48.964Z,100.00
2019-01-27T00:49:17.384Z,100.00
2019-01-27T00:51:45.889Z,100.00
2019-01-27T00:54:14.311Z,100.00
2019-01-27T00:56:42.717Z,100.00
2019-01-27T00:59:11.173Z,100.00
2019-01-27T01:01:39.645Z,100.00
2019-01-27T01:04:08.183Z,100.00
2019-01-27T01:06:36.862Z,100.00
2019-01-27T01:09:08.335Z,100.00
2019-01-27T01:11:36.928Z,100.00
2019-01-27T01:14:05.600Z,100.00
2019-01-27T01:16:34.143Z,100.00
2019-01-27T01:19:02.564Z,100.00
2019-01-27T01:21:30.983Z,100.00
2019-01-27T01:23:59.453Z,100.00
2019-01-27T01:26:27.916Z,100.00
2019-01-27T01:28:56.349Z,100.00
2019-01-27T01:31:25.409Z,100.00
2019-01-27T01:33:53.838Z,100.00
2019-01-27T01:36:22.346Z,100.00
2019-01-27T01:38:50.790Z,100.00
2019-01-27T01:41:19.222Z,100.00
2019-01-27T01:43:47.629Z,100.00
2019-01-27T01:46:16.125Z,100.00
2019-01-27T01:48:44.591Z,100.00
2019-01-27T01:51:13.069Z,100.00
2019-01-27T01:53:41.568Z,100.00
2019-01-27T01:56:09.986Z,100.00
2019-01-27T01:58:38.426Z,100.00
2019-01-27T02:01:06.968Z,100.00
2019-01-27T02:03:35.435Z,100.00
2019-01-27T02:06:04.627Z,100.00
2019-01-27T02:08:33.039Z,100.00
2019-01-27T02:11:01.803Z,100.00
2019-01-27T02:13:30.241Z,100.00
2019-01-27T02:16:03.457Z,100.00
2019-01-27T02:18:32.529Z,100.00
2019-01-27T02:21:01.314Z,100.00
2019-01-27T02:23:29.713Z,100.00
2019-01-27T02:25:58.181Z,100.00
2019-01-27T02:28:26.691Z,100.00
2019-01-27T02:30:55.146Z,100.00
2019-01-27T02:33:23.656Z,100.00
2019-01-27T02:35:52.147Z,100.00
2019-01-27T02:38:20.569Z,100.00
2019-01-27T02:40:49.017Z,100.00
2019-01-27T02:43:17.497Z,100.00
2019-01-27T02:45:45.914Z,100.00
2019-01-27T02:48:14.407Z,100.00
2019-01-27T02:50:44.371Z,100.00
2019-01-27T02:53:12.798Z,100.00
2019-01-27T02:55:41.207Z,100.00
2019-01-27T02:58:09.714Z,100.00
2019-01-27T03:00:38.635Z,100.00
2019-01-27T03:03:07.116Z,100.00
2019-01-27T03:05:52.416Z,100.00
2019-01-27T03:08:20.960Z,100.00
2019-01-27T03:10:49.511Z,100.00
2019-01-27T03:13:17.948Z,100.00
2019-01-27T03:15:46.359Z,100.00
2019-01-27T03:18:14.868Z,100.00
2019-01-27T03:20:43.342Z,100.00
2019-01-27T03:23:11.746Z,100.00
2019-01-27T03:25:40.208Z,100.00
2019-01-27T03:28:08.658Z,100.00
2019-01-27T03:30:37.165Z,100.00
2019-01-27T03:33:05.665Z,100.00
2019-01-27T03:35:34.087Z,100.00
2019-01-27T03:38:02.582Z,100.00
2019-01-27T03:40:31.208Z,100.00
2019-01-27T03:42:59.641Z,100.00
2019-01-27T03:45:28.068Z,100.00
2019-01-27T03:47:56.495Z,100.00
2019-01-27T03:50:24.924Z,100.00
2019-01-27T03:52:53.327Z,100.00
2019-01-27T03:55:29.569Z,100.00
2019-01-27T03:57:57.995Z,100.00
2019-01-27T04:00:26.477Z,100.00
2019-01-27T04:02:56.638Z,100.00
2019-01-27T04:05:25.083Z,100.00
2019-01-27T04:07:53.557Z,100.00
2019-01-27T04:10:24.367Z,100.00
2019-01-27T04:12:52.872Z,100.00
2019-01-27T04:15:21.459Z,100.00
2019-01-27T04:17:49.893Z,100.00
2019-01-27T04:20:22.538Z,100.00
2019-01-27T04:22:51.056Z,100.00
2019-01-27T04:25:19.784Z,100.00
2019-01-27T04:27:48.401Z,100.00
2019-01-27T04:30:21.117Z,100.00
2019-01-27T04:32:49.620Z,100.00
2019-01-27T04:35:18.106Z,100.00
2019-01-27T04:37:46.620Z,100.00
2019-01-27T04:40:17.896Z,100.00
2019-01-27T04:42:46.713Z,100.00
2019-01-27T04:45:18.570Z,100.00
2019-01-27T04:47:47.019Z,100.00
2019-01-27T04:50:15.551Z,100.00
2019-01-27T04:52:44.042Z,100.00
2019-01-27T04:55:15.210Z,100.00
2019-01-27T04:57:43.791Z,100.00
2019-01-27T05:00:26.713Z,100.00
2019-01-27T05:03:05.104Z,100.00
2019-01-27T05:05:33.544Z,100.00
2019-01-27T05:08:01.949Z,100.00
2019-01-27T05:10:30.376Z,100.00
2019-01-27T05:12:58.783Z,100.00
2019-01-27T05:15:28.835Z,100.00
2019-01-27T05:17:57.351Z,100.00
2019-01-27T05:20:25.776Z,100.00
2019-01-27T05:22:54.208Z,100.00
2019-01-27T05:25:22.698Z,100.00
2019-01-27T05:27:51.267Z,100.00
2019-01-27T05:30:24.184Z,100.00
2019-01-27T05:32:52.598Z,100.00
2019-01-27T05:35:21.184Z,100.00
2019-01-27T05:37:49.666Z,100.00
2019-01-27T05:40:24.128Z,100.00
2019-01-27T05:42:52.545Z,100.00
2019-01-27T05:45:24.463Z,100.00
2019-01-27T05:47:52.874Z,100.00
2019-01-27T05:50:21.617Z,100.00
2019-01-27T05:52:50.145Z,100.00
2019-01-27T05:55:20.470Z,100.00
2019-01-27T05:57:49.347Z,100.00
2019-01-27T06:00:22.335Z,100.00
2019-01-27T06:02:50.826Z,100.00
2019-01-27T06:05:19.236Z,100.00
2019-01-27T06:07:47.679Z,100.00
2019-01-27T06:10:16.821Z,100.00
2019-01-27T06:12:45.233Z,100.00
2019-01-27T06:15:18.987Z,100.00
2019-01-27T06:17:47.654Z,100.00
2019-01-27T06:20:17.216Z,100.00
2019-01-27T06:22:45.747Z,100.00
2019-01-27T06:25:19.525Z,100.00
2019-01-27T06:27:48.186Z,100.00
2019-01-27T06:30:27.327Z,100.00
2019-01-27T06:32:57.482Z,100.00
2019-01-27T06:35:25.934Z,100.00
2019-01-27T06:37:54.432Z,100.00
2019-01-27T06:40:22.861Z,100.00
2019-01-27T06:42:51.385Z,100.00
2019-01-27T06:45:19.785Z,100.00
2019-01-27T06:47:48.215Z,100.00
2019-01-27T06:50:18.136Z,100.00
2019-01-27T06:52:46.539Z,100.00
2019-01-27T06:55:20.145Z,100.00
2019-01-27T06:57:48.633Z,100.00
2019-01-27T07:00:26.554Z,100.00
2019-01-27T07:02:56.683Z,100.00
2019-01-27T07:05:32.298Z,100.00
2019-01-27T07:08:11.185Z,100.00
2019-01-27T07:10:41.347Z,100.00
2019-01-27T07:13:11.400Z,100.00
2019-01-27T07:15:44.423Z,100.00
2019-01-27T07:18:26.665Z,100.00
2019-01-27T07:20:59.475Z,100.00
2019-01-27T07:23:35.555Z,100.00
2019-01-27T07:26:11.108Z,100.00
2019-01-27T07:28:46.990Z,100.00
2019-01-27T07:31:17.034Z,100.00
2019-01-27T07:33:49.745Z,100.00
2019-01-27T07:36:38.033Z,100.00
2019-01-27T07:39:10.419Z,100.00
2019-01-27T07:41:43.474Z,100.00
2019-01-27T07:44:13.530Z,100.00
2019-01-27T07:46:49.551Z,100.00
2019-01-27T07:49:22.674Z,100.00
2019-01-27T07:51:52.739Z,100.00
2019-01-27T07:54:25.770Z,100.00
2019-01-27T07:56:58.924Z,100.00
2019-01-27T07:59:46.814Z,100.00
2019-01-27T08:02:20.042Z,100.00
2019-01-27T08:04:50.105Z,100.00
2019-01-27T08:07:38.465Z,100.00
2019-01-27T08:10:11.916Z,100.00
2019-01-27T08:12:47.761Z,100.00
2019-01-27T08:15:17.856Z,100.00
2019-01-27T08:17:50.985Z,100.00
2019-01-27T08:20:27.355Z,100.00
2019-01-27T08:22:57.583Z,100.00
2019-01-27T08:25:44.139Z,100.00
2019-01-27T08:28:14.294Z,100.00
2019-01-27T08:30:59.376Z,100.00
2019-01-27T08:33:38.031Z,100.00
2019-01-27T08:36:08.253Z,100.00
2019-01-27T08:38:38.412Z,100.00
2019-01-27T08:41:08.493Z,100.00
2019-01-27T08:43:44.317Z,100.00
2019-01-27T08:46:14.464Z,100.00
2019-01-27T08:48:44.299Z,100.00
2019-01-27T08:51:12.749Z,100.00
2019-01-27T08:53:41.213Z,100.00
2019-01-27T08:56:09.623Z,100.00
2019-01-27T08:58:38.030Z,100.00
2019-01-27T09:01:08.167Z,100.00
2019-01-27T09:03:50.129Z,100.00
2019-01-27T09:06:25.799Z,100.00
2019-01-27T09:08:58.588Z,100.00
2019-01-27T09:11:34.429Z,100.00
2019-01-27T09:14:16.402Z,100.00
2019-01-27T09:16:46.858Z,100.00
2019-01-27T09:19:20.083Z,100.00
2019-01-27T09:21:53.282Z,100.00
2019-01-27T09:24:23.860Z,100.00
2019-01-27T09:27:06.078Z,100.00
2019-01-27T09:29:36.609Z,100.00
2019-01-27T09:32:12.822Z,100.00
2019-01-27T09:34:46.050Z,100.00
2019-01-27T09:37:33.809Z,100.00
2019-01-27T09:40:09.389Z,100.00
2019-01-27T09:42:54.837Z,100.00
2019-01-27T09:45:27.706Z,100.00
2019-01-27T09:48:03.503Z,100.00
2019-01-27T09:50:45.000Z,100.00
2019-01-27T09:53:15.107Z,100.00
2019-01-27T09:56:03.005Z,100.00
2019-01-27T09:58:33.192Z,100.00
2019-01-27T10:01:06.071Z,100.00
2019-01-27T10:03:41.869Z,99.30
2019-01-27T10:06:14.642Z,100.00
2019-01-27T10:08:47.453Z,96.68
2019-01-27T10:11:17.490Z,95.41
2019-01-27T10:14:05.781Z,96.40
2019-01-27T10:16:35.871Z,98.23
2019-01-27T10:19:12.060Z,97.42
2019-01-27T10:21:42.127Z,95.73
2019-01-27T10:24:14.685Z,97.26
2019-01-27T10:26:53.552Z,96.79
2019-01-27T10:29:26.540Z,98.41
2019-01-27T10:31:56.646Z,98.37
2019-01-27T10:34:29.631Z,100.00
2019-01-27T10:37:12.093Z,97.98
2019-01-27T10:39:40.072Z,99.96
2019-01-27T10:42:10.164Z,97.26
2019-01-27T10:44:45.944Z,97.73
2019-01-27T10:47:31.968Z,97.66
2019-01-27T10:50:11.423Z,98.45
2019-01-27T10:52:45.125Z,100.00
2019-01-27T10:55:15.621Z,99.38
2019-01-27T10:58:02.013Z,98.75
2019-01-27T11:00:47.324Z,97.74
2019-01-27T11:03:26.469Z,99.20
2019-01-27T11:05:56.825Z,98.95
2019-01-27T11:08:26.888Z,99.57
2019-01-27T11:11:13.525Z,100.00
2019-01-27T11:14:01.469Z,97.12
2019-01-27T11:16:34.597Z,98.71
2019-01-27T11:19:04.836Z,100.00
2019-01-27T11:21:37.473Z,97.89
2019-01-27T11:24:22.665Z,99.46
2019-01-27T11:26:59.852Z,97.35
2019-01-27T11:29:30.731Z,97.65
2019-01-27T11:32:19.239Z,97.21
2019-01-27T11:34:52.065Z,97.32
2019-01-27T11:37:22.284Z,95.00
2019-01-27T11:40:04.765Z,95.91
2019-01-27T11:42:46.827Z,92.27
2019-01-27T11:45:33.366Z,92.40
2019-01-27T11:48:23.360Z,93.45
2019-01-27T11:50:53.726Z,92.10
2019-01-27T11:53:22.532Z,93.08
2019-01-27T11:55:51.274Z,92.75
2019-01-27T11:58:20.020Z,92.91
2019-01-27T12:00:49.952Z,93.45
2019-01-27T12:03:18.694Z,93.88
2019-01-27T12:05:47.210Z,95.55
2019-01-27T12:08:15.621Z,92.95
2019-01-27T12:10:45.419Z,95.31
2019-01-27T12:13:14.395Z,93.02
2019-01-27T12:15:43.053Z,91.58
2019-01-27T12:18:11.531Z,92.07
2019-01-27T12:20:40.007Z,91.89
2019-01-27T12:23:08.734Z,93.66
2019-01-27T12:25:37.275Z,92.64
2019-01-27T12:28:06.370Z,92.48
2019-01-27T12:30:35.175Z,93.74
2019-01-27T12:33:03.737Z,93.25
2019-01-27T12:35:32.374Z,89.98
2019-01-27T12:38:00.819Z,89.72
2019-01-27T12:40:29.472Z,91.76
2019-01-27T12:42:57.868Z,91.54
2019-01-27T12:45:26.390Z,91.98
2019-01-27T12:47:54.991Z,91.74
2019-01-27T12:50:23.583Z,91.58
2019-01-27T12:52:53.660Z,91.58
2019-01-27T12:55:22.091Z,91.38
2019-01-27T12:57:51.762Z,91.35
2019-01-27T13:00:26.610Z,92.12
2019-01-27T13:02:55.070Z,91.22
2019-01-27T13:05:23.516Z,90.35
2019-01-27T13:07:52.138Z,88.18
2019-01-27T13:10:21.228Z,89.92
2019-01-27T13:12:49.629Z,89.28
2019-01-27T13:15:20.953Z,89.33
2019-01-27T13:17:49.397Z,90.75
2019-01-27T13:20:17.941Z,89.47
2019-01-27T13:22:46.474Z,90.65
2019-01-27T13:25:17.320Z,90.28
2019-01-27T13:27:45.815Z,90.92
2019-01-27T13:30:20.013Z,90.10
2019-01-27T13:32:49.655Z,91.36
2019-01-27T13:35:18.798Z,89.45
2019-01-27T13:37:47.302Z,89.92
2019-01-27T13:40:18.212Z,91.49
2019-01-27T13:42:46.823Z,90.95
2019-01-27T13:45:32.009Z,92.15
2019-01-27T13:48:00.586Z,92.82
2019-01-27T13:50:29.216Z,91.85
2019-01-27T13:52:57.799Z,92.46
2019-01-27T13:55:29.089Z,92.19
2019-01-27T13:57:57.503Z,90.71
2019-01-27T14:00:28.915Z,90.99
2019-01-27T14:02:57.428Z,92.55
2019-01-27T14:05:26.869Z,92.55
2019-01-27T14:07:55.420Z,92.20
2019-01-27T14:10:29.294Z,93.02
2019-01-27T14:12:58.388Z,90.33
2019-01-27T14:15:29.605Z,90.61
2019-01-27T14:17:58.028Z,90.69
2019-01-27T14:20:28.046Z,91.16
2019-01-27T14:22:56.617Z,91.78
2019-01-27T14:25:28.520Z,91.92
2019-01-27T14:27:57.506Z,91.13
2019-01-27T14:30:31.807Z,92.25
2019-01-27T14:33:00.576Z,92.76
2019-01-27T14:35:28.998Z,92.21
2019-01-27T14:37:57.416Z,91.51
2019-01-27T14:40:28.077Z,92.32
2019-01-27T14:42:56.498Z,91.72
2019-01-27T14:45:31.307Z,93.34
2019-01-27T14:48:00.570Z,92.71
2019-01-27T14:50:31.755Z,94.07
2019-01-27T14:53:01.171Z,92.96
2019-01-27T14:55:29.733Z,94.19
2019-01-27T14:57:58.139Z,93.66
2019-01-27T15:00:41.553Z,93.87
2019-01-27T15:03:10.422Z,93.67
2019-01-27T15:05:39.030Z,94.31
2019-01-27T15:08:08.030Z,93.58
2019-01-27T15:10:37.178Z,93.90
2019-01-27T15:13:07.148Z,93.98
2019-01-27T15:15:35.625Z,93.51
2019-01-27T15:18:05.257Z,93.63
2019-01-27T15:20:39.630Z,94.83
2019-01-27T15:23:08.049Z,94.64
2019-01-27T15:25:36.446Z,94.67
2019-01-27T15:28:05.130Z,95.27
2019-01-27T15:30:35.566Z,95.46
2019-01-27T15:33:04.756Z,95.44
2019-01-27T15:35:33.295Z,95.53
2019-01-27T15:38:01.854Z,96.29
2019-01-27T15:40:30.273Z,96.60
2019-01-27T15:42:58.764Z,97.42
2019-01-27T15:45:29.541Z,97.84
2019-01-27T15:47:58.666Z,99.69
2019-01-27T15:50:35.967Z,99.60
2019-01-27T15:53:05.704Z,100.00
2019-01-27T15:55:35.856Z,100.00
2019-01-27T15:58:04.667Z,100.00
2019-01-27T16:00:33.489Z,100.00
2019-01-27T16:03:03.036Z,100.00
2019-01-27T16:05:31.482Z,100.00
2019-01-27T16:07:59.899Z,100.00
2019-01-27T16:10:29.181Z,100.00
2019-01-27T16:12:58.542Z,100.00
2019-01-27T16:15:29.135Z,100.00
2019-01-27T16:17:57.625Z,100.00
2019-01-27T16:20:26.511Z,100.00
2019-01-27T16:22:56.648Z,100.00
2019-01-27T16:25:25.112Z,100.00
2019-01-27T16:27:53.610Z,100.00
2019-01-27T16:30:44.549Z,100.00
2019-01-27T16:33:11.763Z,100.00
2019-01-27T16:35:40.187Z,100.00
2019-01-27T16:38:08.719Z,100.00
2019-01-27T16:40:39.677Z,100.00
2019-01-27T16:43:09.007Z,100.00
2019-01-27T16:45:37.715Z,100.00
2019-01-27T16:48:06.400Z,100.00
2019-01-27T16:50:34.967Z,100.00
2019-01-27T16:53:03.392Z,100.00
2019-01-27T16:55:31.855Z,100.00
2019-01-27T16:58:00.311Z,100.00
2019-01-27T17:00:31.002Z,100.00
2019-01-27T17:02:59.668Z,100.00
2019-01-27T17:05:28.349Z,100.00
2019-01-27T17:07:57.555Z,100.00
2019-01-27T17:10:28.658Z,100.00
2019-01-27T17:12:57.072Z,100.00
2019-01-27T17:15:25.856Z,100.00
2019-01-27T17:17:54.287Z,100.00
2019-01-27T17:20:26.318Z,100.00
2019-01-27T17:22:55.389Z,100.00
2019-01-27T17:25:23.954Z,100.00
2019-01-27T17:27:52.376Z,100.00
2019-01-27T17:30:28.679Z,100.00
2019-01-27T17:32:57.287Z,100.00
2019-01-27T17:35:26.760Z,100.00
2019-01-27T17:37:55.527Z,100.00
2019-01-27T17:40:24.083Z,100.00
2019-01-27T17:42:52.684Z,100.00
2019-01-27T17:45:26.777Z,100.00
2019-01-27T17:47:55.267Z,100.00
2019-01-27T17:50:25.217Z,100.00
2019-01-27T17:52:54.055Z,100.00
2019-01-27T17:55:45.385Z,100.00
2019-01-27T17:58:37.335Z,100.00
2019-01-27T18:01:19.979Z,100.00
2019-01-27T18:04:08.155Z,100.00
2019-01-27T18:06:50.504Z,100.00
2019-01-27T18:09:20.617Z,100.00
2019-01-27T18:11:50.664Z,100.00
2019-01-27T18:14:20.739Z,100.00
2019-01-27T18:16:49.193Z,100.00
2019-01-27T18:19:17.606Z,100.00
2019-01-27T18:21:46.059Z,100.00
2019-01-27T18:24:14.511Z,100.00
2019-01-27T18:26:42.927Z,100.00
2019-01-27T18:29:11.369Z,100.00
2019-01-27T18:31:39.780Z,100.00
2019-01-27T18:34:15.842Z,100.00
2019-01-27T18:36:44.378Z,100.00
2019-01-27T18:39:12.912Z,100.00
2019-01-27T18:41:41.501Z,100.00
2019-01-27T18:44:10.099Z,100.00
2019-01-27T18:46:38.561Z,100.00
2019-01-27T18:49:07.092Z,100.00
2019-01-27T18:51:37.689Z,100.00
2019-01-27T18:54:17.165Z,100.00
2019-01-27T18:56:47.252Z,100.00
2019-01-27T18:59:19.789Z,100.00
2019-01-27T19:01:49.889Z,100.00
2019-01-27T19:04:20.111Z,100.00
2019-01-27T19:06:53.280Z,100.00
2019-01-27T19:09:29.360Z,100.00
2019-01-27T19:12:07.901Z,100.00
2019-01-27T19:14:40.923Z,100.00
2019-01-27T19:17:27.045Z,100.00
2019-01-27T19:19:59.779Z,100.00
2019-01-27T19:22:46.154Z,100.00
2019-01-27T19:25:19.167Z,100.00
2019-01-27T19:28:02.268Z,100.00
2019-01-27T19:30:38.483Z,100.00
2019-01-27T19:33:08.609Z,100.00
2019-01-27T19:35:47.502Z,100.00
2019-01-27T19:38:20.385Z,100.00
2019-01-27T19:40:56.168Z,100.00
2019-01-27T19:43:35.031Z,100.00
2019-01-27T19:46:05.109Z,100.00
2019-01-27T19:48:35.207Z,100.00
2019-01-27T19:51:08.077Z,100.00
2019-01-27T19:53:41.070Z,100.00
2019-01-27T19:56:11.120Z,100.00
2019-01-27T19:58:41.954Z,100.00
2019-01-27T20:01:17.748Z,100.00
2019-01-27T20:04:05.846Z,100.00
2019-01-27T20:06:38.964Z,100.00
2019-01-27T20:09:19.311Z,100.00
2019-01-27T20:11:49.447Z,100.00
2019-01-27T20:14:19.588Z,100.00
2019-01-27T20:17:06.000Z,100.00
2019-01-27T20:19:39.104Z,100.00
2019-01-27T20:22:15.112Z,100.00
2019-01-27T20:24:57.041Z,100.00
2019-01-27T20:27:35.821Z,100.00
2019-01-27T20:30:14.559Z,100.00
2019-01-27T20:32:44.635Z,100.00
2019-01-27T20:35:14.729Z,100.00
2019-01-27T20:37:47.818Z,100.00
2019-01-27T20:40:23.339Z,100.00
2019-01-27T20:42:53.579Z,100.00
2019-01-27T20:45:38.526Z,100.00
2019-01-27T20:48:14.864Z,100.00
2019-01-27T20:50:47.622Z,100.00
2019-01-27T20:53:17.696Z,100.00
2019-01-27T20:56:02.675Z,100.00
2019-01-27T20:58:38.714Z,100.00
2019-01-27T21:01:10.229Z,100.00
2019-01-27T21:03:52.581Z,100.00
2019-01-27T21:06:38.721Z,100.00
2019-01-27T21:09:13.192Z,100.00
2019-01-27T21:11:45.764Z,100.00
2019-01-27T21:14:24.787Z,100.00
2019-01-27T21:17:04.048Z,100.00
2019-01-27T21:19:34.126Z,100.00
2019-01-27T21:22:02.556Z,100.00
2019-01-27T21:24:31.338Z,100.00
2019-01-27T21:26:59.901Z,100.00
2019-01-27T21:29:28.312Z,100.00
2019-01-27T21:31:56.824Z,100.00
2019-01-27T21:34:25.237Z,100.00
2019-01-27T21:36:53.708Z,100.00
2019-01-27T21:39:22.151Z,100.00
2019-01-27T21:41:50.626Z,100.00
2019-01-27T21:44:18.989Z,100.00
2019-01-27T21:46:47.431Z,100.00
2019-01-27T21:49:15.841Z,100.00
2019-01-27T21:51:44.299Z,100.00
2019-01-27T21:54:12.801Z,100.00
2019-01-27T21:56:41.239Z,100.00
2019-01-27T21:59:09.668Z,100.00
2019-01-27T22:01:38.097Z,100.00
2019-01-27T22:04:06.528Z,100.00
2019-01-27T22:06:34.962Z,100.00
2019-01-27T22:09:04.879Z,100.00
2019-01-27T22:11:33.305Z,100.00
2019-01-27T22:14:01.744Z,100.00
2019-01-27T22:16:30.173Z,100.00
2019-01-27T22:18:58.606Z,100.00
2019-01-27T22:21:27.027Z,100.00
2019-01-27T22:23:55.471Z,100.00
2019-01-27T22:26:23.905Z,100.00
2019-01-27T22:28:52.340Z,100.00
2019-01-27T22:31:20.783Z,100.00
2019-01-27T22:33:49.235Z,100.00
2019-01-27T22:36:17.660Z,100.00
2019-01-27T22:38:46.082Z,100.00
2019-01-27T22:41:14.518Z,100.00
2019-01-27T22:43:42.962Z,100.00
2019-01-27T22:46:11.513Z,100.00
2019-01-27T22:48:39.976Z,100.00
2019-01-27T22:51:08.470Z,100.00
2019-01-27T22:53:36.904Z,100.00
2019-01-27T22:56:05.479Z,100.00
2019-01-27T22:58:33.908Z,100.00
2019-01-27T23:01:04.227Z,100.00
2019-01-27T23:03:33.612Z,100.00
2019-01-27T23:06:02.015Z,100.00
2019-01-27T23:08:30.431Z,100.00
2019-01-27T23:10:58.885Z,100.00
2019-01-27T23:13:27.351Z,100.00
2019-01-27T23:15:55.858Z,100.00
2019-01-27T23:18:24.304Z,100.00
2019-01-27T23:20:52.736Z,100.00
2019-01-27T23:23:21.242Z,100.00
2019-01-27T23:25:50.488Z,100.00
2019-01-27T23:28:19.146Z,100.00
2019-01-27T23:30:47.561Z,100.00
2019-01-27T23:33:16.091Z,100.00
2019-01-27T23:35:44.547Z,100.00
2019-01-27T23:38:12.951Z,100.00
2019-01-27T23:40:41.372Z,100.00
2019-01-27T23:43:09.911Z,100.00
2019-01-27T23:45:38.315Z,100.00
2019-01-27T23:48:06.824Z,100.00
2019-01-27T23:50:35.257Z,100.00
2019-01-27T23:53:03.961Z,100.00
2019-01-27T23:55:32.414Z,100.00
2019-01-27T23:58:00.825Z,100.00
